createdAt,value
2022-12-27T00:01:34.505Z,3.14
2022-12-27T00:03:38.620Z,3.11
2022-12-27T00:05:45.137Z,3.11
2022-12-27T00:07:49.276Z,3.10
2022-12-27T00:09:53.006Z,3.11
2022-12-27T00:11:59.912Z,3.11
2022-12-27T00:14:07.680Z,3.11
2022-12-27T00:16:13.503Z,3.13
2022-12-27T00:18:17.510Z,3.14
2022-12-27T00:20:21.958Z,3.15
2022-12-27T00:22:25.734Z,3.14
2022-12-27T00:24:33.456Z,3.12
2022-12-27T00:26:38.490Z,3.10
2022-12-27T00:28:42.672Z,3.05
2022-12-27T00:30:49.269Z,3.04
2022-12-27T00:32:53.596Z,3.03
2022-12-27T00:34:57.277Z,3.00
2022-12-27T00:37:01.240Z,3.00
2022-12-27T00:39:05.621Z,3.00
2022-12-27T00:41:09.719Z,2.99
2022-12-27T00:43:13.284Z,3.00
2022-12-27T00:45:16.965Z,3.02
2022-12-27T00:47:22.446Z,3.00
2022-12-27T00:49:26.136Z,2.99
2022-12-27T00:51:29.932Z,2.98
2022-12-27T00:53:34.987Z,2.96
2022-12-27T00:55:38.899Z,2.98
2022-12-27T00:57:42.743Z,2.99
2022-12-27T00:59:46.296Z,3.00
2022-12-27T01:01:50.707Z,2.99
2022-12-27T01:04:06.835Z,2.99
2022-12-27T01:06:15.893Z,3.00
2022-12-27T01:08:20.744Z,2.99
2022-12-27T01:10:30.581Z,3.00
2022-12-27T01:12:47.793Z,3.03
2022-12-27T01:15:00.539Z,3.07
2022-12-27T01:17:12.402Z,3.10
2022-12-27T01:19:29.211Z,3.12
2022-12-27T01:21:36.483Z,3.15
2022-12-27T01:23:50.547Z,3.17
2022-12-27T01:26:13.983Z,3.18
2022-12-27T01:28:18.163Z,3.20
2022-12-27T01:30:23.449Z,3.21
2022-12-27T01:32:29.233Z,3.24
2022-12-27T01:34:34.376Z,3.26
2022-12-27T01:36:38.390Z,3.29
2022-12-27T01:38:44.097Z,3.31
2022-12-27T01:40:47.910Z,3.32
2022-12-27T01:42:53.230Z,3.34
2022-12-27T01:44:59.063Z,3.36
2022-12-27T01:47:04.800Z,3.37
2022-12-27T01:49:11.955Z,3.39
2022-12-27T01:51:18.394Z,3.41
2022-12-27T01:53:24.836Z,3.42
2022-12-27T01:55:34.225Z,3.43
2022-12-27T01:57:38.163Z,3.44
2022-12-27T01:59:43.155Z,3.46
2022-12-27T02:01:49.661Z,3.46
2022-12-27T02:03:56.014Z,3.49
2022-12-27T02:06:02.661Z,3.51
2022-12-27T02:08:19.956Z,3.53
2022-12-27T02:10:23.874Z,3.54
2022-12-27T02:12:28.614Z,3.56
2022-12-27T02:14:35.298Z,3.59
2022-12-27T02:16:39.308Z,3.61
2022-12-27T02:18:43.312Z,3.62
2022-12-27T02:21:10.363Z,3.65
2022-12-27T02:24:03.498Z,3.68
2022-12-27T02:26:41.571Z,3.71
2022-12-27T02:29:07.857Z,3.73
2022-12-27T02:31:18.052Z,3.76
2022-12-27T02:33:26.595Z,3.79
2022-12-27T02:35:37.212Z,3.79
2022-12-27T02:37:44.669Z,3.83
2022-12-27T02:39:50.325Z,3.84
2022-12-27T02:42:12.533Z,3.86
2022-12-27T02:44:34.663Z,3.89
2022-12-27T02:46:55.307Z,3.92
2022-12-27T02:49:17.756Z,3.94
2022-12-27T02:51:50.742Z,3.95
2022-12-27T02:54:07.296Z,3.98
2022-12-27T02:56:41.207Z,3.98
2022-12-27T02:58:50.394Z,4.00
2022-12-27T03:01:25.610Z,4.01
2022-12-27T03:03:44.823Z,4.05
2022-12-27T03:06:30.572Z,4.05
2022-12-27T03:08:43.319Z,4.10
2022-12-27T03:11:07.464Z,4.12
2022-12-27T03:13:37.912Z,4.14
2022-12-27T03:16:06.958Z,4.16
2022-12-27T03:18:15.557Z,4.19
2022-12-27T03:20:38.206Z,4.22
2022-12-27T03:23:01.178Z,4.25
2022-12-27T03:25:22.984Z,4.29
2022-12-27T03:27:32.980Z,4.29
2022-12-27T03:29:53.825Z,4.30
2022-12-27T03:32:20.858Z,4.32
2022-12-27T03:34:36.050Z,4.35
2022-12-27T03:36:56.755Z,4.36
2022-12-27T03:39:06.948Z,4.39
2022-12-27T03:41:33.174Z,4.39
2022-12-27T03:43:38.191Z,4.40
2022-12-27T03:46:09.695Z,4.42
2022-12-27T03:48:21.569Z,4.44
2022-12-27T03:50:29.766Z,4.44
2022-12-27T03:52:39.374Z,4.45
2022-12-27T03:54:44.808Z,4.47
2022-12-27T03:56:48.122Z,4.48
2022-12-27T03:58:52.288Z,4.49
2022-12-27T04:00:55.711Z,4.50
2022-12-27T04:02:59.128Z,4.52
2022-12-27T04:05:04.190Z,4.55
2022-12-27T04:07:07.725Z,4.57
2022-12-27T04:09:29.068Z,4.57
2022-12-27T04:11:50.717Z,4.59
2022-12-27T04:14:11.321Z,4.60
2022-12-27T04:16:32.086Z,4.60
2022-12-27T04:18:52.815Z,4.61
2022-12-27T04:21:14.946Z,4.61
2022-12-27T04:23:35.953Z,4.63
2022-12-27T04:25:56.588Z,4.63
2022-12-27T04:28:17.909Z,4.63
2022-12-27T04:30:38.520Z,4.64
2022-12-27T04:32:59.282Z,4.66
2022-12-27T04:35:02.513Z,4.67
2022-12-27T04:37:07.505Z,4.67
2022-12-27T04:39:10.872Z,4.67
2022-12-27T04:41:31.479Z,4.69
2022-12-27T04:43:52.130Z,4.71
2022-12-27T04:46:12.701Z,4.72
2022-12-27T04:48:34.845Z,4.72
2022-12-27T04:50:55.626Z,4.73
2022-12-27T04:53:17.962Z,4.74
2022-12-27T04:55:24.291Z,4.73
2022-12-27T04:57:28.736Z,4.73
2022-12-27T05:00:04.022Z,4.73
2022-12-27T05:02:07.493Z,4.75
2022-12-27T05:04:11.075Z,4.77
2022-12-27T05:06:14.816Z,4.77
2022-12-27T05:08:39.115Z,4.78
2022-12-27T05:10:59.797Z,4.79
2022-12-27T05:13:20.664Z,4.79
2022-12-27T05:15:24.238Z,4.79
2022-12-27T05:17:27.481Z,4.79
2022-12-27T05:19:30.737Z,4.76
2022-12-27T05:21:37.014Z,4.74
2022-12-27T05:24:05.101Z,4.72
2022-12-27T05:26:07.946Z,4.71
2022-12-27T05:28:13.243Z,4.72
2022-12-27T05:30:16.576Z,4.73
2022-12-27T05:32:19.803Z,4.76
2022-12-27T05:34:23.091Z,4.78
2022-12-27T05:36:27.158Z,4.76
2022-12-27T05:38:30.565Z,4.75
2022-12-27T05:40:35.608Z,4.74
2022-12-27T05:42:39.028Z,4.74
2022-12-27T05:44:42.315Z,4.74
2022-12-27T05:46:46.611Z,4.73
2022-12-27T05:48:51.108Z,4.69
2022-12-27T05:50:54.393Z,4.65
2022-12-27T05:52:59.851Z,4.61
2022-12-27T05:55:03.229Z,4.57
2022-12-27T05:57:07.878Z,4.56
2022-12-27T05:59:11.308Z,4.54
2022-12-27T06:01:16.752Z,4.55
2022-12-27T06:03:20.473Z,4.54
2022-12-27T06:05:23.837Z,4.55
2022-12-27T06:07:27.120Z,4.55
2022-12-27T06:09:30.531Z,4.57
2022-12-27T06:11:33.867Z,4.57
2022-12-27T06:13:39.623Z,4.53
2022-12-27T06:15:43.004Z,4.51
2022-12-27T06:17:46.359Z,4.49
2022-12-27T06:19:53.913Z,4.51
2022-12-27T06:22:00.300Z,4.65
2022-12-27T06:24:03.751Z,4.77
2022-12-27T06:26:07.513Z,4.86
2022-12-27T06:28:10.846Z,5.03
2022-12-27T06:30:15.875Z,5.16
2022-12-27T06:32:19.281Z,5.26
2022-12-27T06:34:22.557Z,5.35
2022-12-27T06:36:27.801Z,5.43
2022-12-27T06:38:31.146Z,5.53
2022-12-27T06:40:34.388Z,5.59
2022-12-27T06:42:37.795Z,5.66
2022-12-27T06:44:41.063Z,5.72
2022-12-27T06:46:45.801Z,5.78
2022-12-27T06:48:49.276Z,5.83
2022-12-27T06:50:52.730Z,5.87
2022-12-27T06:52:56.068Z,5.89
2022-12-27T06:54:59.327Z,5.92
2022-12-27T06:57:02.626Z,5.94
2022-12-27T06:59:06.079Z,5.97
2022-12-27T07:01:10.109Z,6.01
2022-12-27T07:03:15.419Z,6.08
2022-12-27T07:05:19.262Z,6.12
2022-12-27T07:07:22.909Z,6.14
2022-12-27T07:09:27.171Z,6.17
2022-12-27T07:11:32.863Z,6.20
2022-12-27T07:13:37.123Z,6.25
2022-12-27T07:15:40.540Z,6.29
2022-12-27T07:17:43.864Z,6.33
2022-12-27T07:19:48.756Z,6.37
2022-12-27T07:21:52.135Z,6.38
2022-12-27T07:23:55.579Z,6.42
2022-12-27T07:26:03.512Z,6.47
2022-12-27T07:28:07.022Z,6.50
2022-12-27T07:30:11.447Z,6.52
2022-12-27T07:32:14.820Z,6.54
2022-12-27T07:34:18.077Z,6.54
2022-12-27T07:36:25.310Z,6.54
2022-12-27T07:38:28.756Z,6.52
2022-12-27T07:40:32.071Z,6.53
2022-12-27T07:42:35.446Z,6.56
2022-12-27T07:44:40.129Z,6.57
2022-12-27T07:46:43.987Z,6.62
2022-12-27T07:48:48.137Z,6.66
2022-12-27T07:50:56.382Z,6.69
2022-12-27T07:53:01.120Z,6.72
2022-12-27T07:55:04.647Z,6.74
2022-12-27T07:57:07.949Z,6.75
2022-12-27T07:59:13.886Z,6.77
2022-12-27T08:01:18.929Z,6.78
2022-12-27T08:03:22.518Z,6.81
2022-12-27T08:05:27.916Z,6.85
2022-12-27T08:07:31.469Z,6.88
2022-12-27T08:09:40.798Z,6.86
2022-12-27T08:11:44.092Z,6.86
2022-12-27T08:13:47.712Z,6.87
2022-12-27T08:15:53.743Z,6.86
2022-12-27T08:17:57.045Z,6.87
2022-12-27T08:20:00.305Z,6.91
2022-12-27T08:22:05.348Z,6.93
2022-12-27T08:24:08.814Z,6.96
2022-12-27T08:26:13.842Z,7.03
2022-12-27T08:28:18.609Z,7.07
2022-12-27T08:30:22.068Z,7.09
2022-12-27T08:32:25.691Z,7.10
2022-12-27T08:34:29.199Z,7.14
2022-12-27T08:38:56.373Z,7.22
2022-12-27T08:40:59.604Z,7.24
2022-12-27T08:43:04.394Z,7.29
2022-12-27T08:45:08.507Z,7.33
2022-12-27T08:47:12.198Z,7.35
2022-12-27T08:49:15.593Z,7.40
2022-12-27T08:51:31.428Z,7.42
2022-12-27T08:53:36.678Z,7.47
2022-12-27T08:55:40.002Z,7.50
2022-12-27T08:57:43.348Z,7.53
2022-12-27T08:59:47.969Z,7.55
2022-12-27T09:01:51.346Z,7.56
2022-12-27T09:03:54.715Z,7.58
2022-12-27T09:06:08.447Z,7.60
2022-12-27T09:08:11.897Z,7.59
2022-12-27T09:10:15.497Z,7.60
2022-12-27T09:12:18.897Z,7.65
2022-12-27T09:14:22.222Z,7.67
2022-12-27T09:16:28.732Z,7.70
2022-12-27T09:18:32.062Z,7.73
2022-12-27T09:20:35.311Z,7.77
2022-12-27T09:22:38.613Z,7.84
2022-12-27T09:24:41.947Z,7.89
2022-12-27T09:26:45.261Z,7.93
2022-12-27T09:28:50.444Z,7.95
2022-12-27T09:30:53.736Z,7.99
2022-12-27T09:32:59.400Z,8.02
2022-12-27T09:35:03.434Z,8.03
2022-12-27T09:37:06.853Z,8.05
2022-12-27T09:39:12.329Z,8.06
2022-12-27T09:42:11.417Z,8.06
2022-12-27T09:43:55.278Z,8.05
2022-12-27T09:46:00.141Z,8.05
2022-12-27T09:48:12.241Z,8.04
2022-12-27T09:50:20.114Z,8.02
2022-12-27T09:52:29.942Z,8.03
2022-12-27T09:54:39.481Z,8.04
2022-12-27T09:57:18.478Z,8.07
2022-12-27T09:59:16.194Z,8.08
2022-12-27T10:01:23.962Z,8.06
2022-12-27T10:03:31.246Z,8.07
2022-12-27T10:05:37.746Z,8.07
2022-12-27T10:07:48.888Z,8.09
2022-12-27T10:10:01.897Z,8.14
2022-12-27T10:12:19.092Z,8.19
2022-12-27T10:14:38.431Z,8.23
2022-12-27T10:16:49.294Z,8.25
2022-12-27T10:19:12.615Z,8.27
2022-12-27T10:21:21.900Z,8.29
2022-12-27T10:23:27.886Z,8.33
2022-12-27T10:25:32.400Z,8.38
2022-12-27T10:27:36.754Z,8.43
2022-12-27T10:29:40.844Z,8.51
2022-12-27T10:31:44.913Z,8.58
2022-12-27T10:34:33.601Z,8.64
2022-12-27T10:36:35.022Z,8.77
2022-12-27T10:38:38.318Z,8.83
2022-12-27T10:40:50.489Z,8.90
2022-12-27T10:43:03.676Z,9.00
2022-12-27T10:45:29.917Z,9.09
2022-12-27T10:47:33.284Z,9.18
2022-12-27T10:49:37.493Z,9.20
2022-12-27T10:51:43.445Z,9.21
2022-12-27T10:53:59.276Z,9.24
2022-12-27T10:56:15.162Z,9.26
2022-12-27T10:58:33.614Z,9.26
2022-12-27T11:00:38.692Z,9.28
2022-12-27T11:02:51.028Z,9.28
2022-12-27T11:05:00.412Z,9.33
2022-12-27T11:07:21.055Z,9.32
2022-12-27T11:09:31.863Z,9.29
2022-12-27T11:11:35.692Z,9.30
2022-12-27T11:13:39.393Z,9.32
2022-12-27T11:15:48.147Z,9.37
2022-12-27T11:17:55.429Z,9.38
2022-12-27T11:20:01.875Z,9.39
2022-12-27T11:22:09.229Z,9.39
2022-12-27T11:24:17.576Z,9.39
2022-12-27T11:26:25.279Z,9.39
2022-12-27T11:28:34.944Z,9.39
2022-12-27T11:30:41.224Z,9.41
2022-12-27T11:32:46.955Z,9.43
2022-12-27T11:34:55.373Z,9.46
2022-12-27T11:37:07.365Z,9.46
2022-12-27T11:39:41.228Z,9.46
2022-12-27T11:41:49.580Z,9.48
2022-12-27T11:44:01.184Z,9.49
2022-12-27T11:46:12.638Z,9.48
2022-12-27T11:48:28.186Z,9.46
2022-12-27T11:50:44.875Z,9.45
2022-12-27T11:53:07.627Z,9.42
2022-12-27T11:55:45.481Z,9.42
2022-12-27T11:58:10.852Z,9.41
2022-12-27T12:00:22.067Z,9.43
2022-12-27T12:02:35.081Z,9.44
2022-12-27T12:05:13.818Z,9.51
2022-12-27T12:07:30.713Z,9.55
2022-12-27T12:09:55.549Z,9.60
2022-12-27T12:12:21.695Z,9.65
2022-12-27T12:14:46.718Z,9.65
2022-12-27T12:17:09.890Z,9.63
2022-12-27T12:19:32.792Z,9.58
2022-12-27T12:21:50.160Z,9.54
2022-12-27T12:24:27.157Z,9.49
2022-12-27T12:26:38.561Z,9.48
2022-12-27T12:29:06.773Z,9.49
2022-12-27T12:31:28.622Z,9.51
2022-12-27T12:33:58.838Z,9.57
2022-12-27T12:36:24.924Z,9.63
2022-12-27T12:38:39.808Z,9.71
2022-12-27T12:41:16.384Z,9.78
2022-12-27T12:43:37.377Z,9.83
2022-12-27T12:46:00.966Z,9.86
2022-12-27T12:48:28.243Z,9.84
2022-12-27T12:50:46.386Z,9.82
2022-12-27T12:53:23.040Z,9.78
2022-12-27T12:55:49.073Z,9.76
2022-12-27T12:58:06.663Z,9.74
2022-12-27T13:00:45.225Z,9.71
2022-12-27T13:03:49.751Z,9.69
2022-12-27T13:06:05.439Z,9.69
2022-12-27T13:08:17.187Z,9.68
2022-12-27T13:10:47.508Z,9.67
2022-12-27T13:13:01.866Z,9.67
2022-12-27T13:15:34.918Z,9.67
2022-12-27T13:17:55.157Z,9.64
2022-12-27T13:20:36.016Z,9.61
2022-12-27T13:22:55.283Z,9.58
2022-12-27T13:25:15.288Z,9.56
2022-12-27T13:27:28.348Z,9.54
2022-12-27T13:30:07.149Z,9.54
2022-12-27T13:32:30.134Z,9.53
2022-12-27T13:34:57.299Z,9.52
2022-12-27T13:37:17.451Z,9.53
2022-12-27T13:39:44.061Z,9.56
2022-12-27T13:42:08.136Z,9.56
2022-12-27T13:44:34.541Z,9.58
2022-12-27T13:46:51.402Z,9.61
2022-12-27T13:49:14.524Z,9.64
2022-12-27T13:51:38.058Z,9.66
2022-12-27T13:54:36.744Z,9.67
2022-12-27T13:56:57.180Z,9.72
2022-12-27T13:59:24.846Z,9.74
2022-12-27T14:01:48.521Z,9.76
2022-12-27T14:04:11.779Z,9.76
2022-12-27T14:06:50.905Z,9.78
2022-12-27T14:09:43.285Z,9.79
2022-12-27T14:12:03.026Z,9.79
2022-12-27T14:14:08.476Z,9.79
2022-12-27T14:16:30.688Z,9.79
2022-12-27T14:18:58.015Z,9.78
2022-12-27T14:21:16.979Z,9.77
2022-12-27T14:24:00.604Z,9.77
2022-12-27T14:26:48.788Z,9.77
2022-12-27T14:29:41.273Z,9.74
2022-12-27T14:32:03.567Z,9.71
2022-12-27T14:34:45.425Z,9.67
2022-12-27T14:37:20.433Z,9.61
2022-12-27T14:39:43.927Z,9.55
2022-12-27T14:42:29.182Z,9.42
2022-12-27T14:45:18.233Z,9.25
2022-12-27T14:48:02.629Z,9.06
2022-12-27T14:50:53.579Z,8.86
2022-12-27T14:53:33.955Z,8.74
2022-12-27T14:55:58.078Z,8.63
2022-12-27T14:58:22.011Z,8.51
2022-12-27T15:00:27.101Z,8.43
2022-12-27T15:02:49.468Z,8.38
2022-12-27T15:05:18.714Z,8.30
2022-12-27T15:07:48.186Z,8.26
2022-12-27T15:10:03.718Z,8.21
2022-12-27T15:12:22.647Z,8.18
2022-12-27T15:14:50.917Z,8.12
2022-12-27T15:17:07.232Z,8.10
2022-12-27T15:19:43.335Z,8.06
2022-12-27T15:21:55.490Z,8.07
2022-12-27T15:24:11.706Z,8.07
2022-12-27T15:26:23.860Z,8.08
2022-12-27T15:28:45.961Z,8.07
2022-12-27T15:31:03.778Z,8.07
2022-12-27T15:33:19.502Z,8.04
2022-12-27T15:35:50.232Z,7.99
2022-12-27T15:38:13.869Z,7.94
2022-12-27T15:40:26.707Z,7.87
2022-12-27T15:42:54.409Z,7.85
2022-12-27T15:45:07.202Z,7.80
2022-12-27T15:47:50.533Z,7.76
2022-12-27T15:50:32.646Z,7.73
2022-12-27T15:53:12.002Z,7.72
2022-12-27T15:55:29.964Z,7.70
2022-12-27T15:57:59.599Z,7.68
2022-12-27T16:00:17.418Z,7.67
2022-12-27T16:02:37.787Z,7.66
2022-12-27T16:04:51.088Z,7.66
2022-12-27T16:07:02.315Z,7.65
2022-12-27T16:09:35.716Z,7.65
2022-12-27T16:12:09.853Z,7.65
2022-12-27T16:14:30.612Z,7.65
2022-12-27T16:17:04.963Z,7.65
2022-12-27T16:19:22.624Z,7.65
2022-12-27T16:21:28.081Z,7.65
2022-12-27T16:23:35.032Z,7.65
2022-12-27T16:25:42.540Z,7.63
2022-12-27T16:27:46.742Z,7.62
2022-12-27T16:29:50.359Z,7.61
2022-12-27T16:32:12.913Z,7.58
2022-12-27T16:34:25.486Z,7.57
2022-12-27T16:36:33.893Z,7.52
2022-12-27T16:38:40.361Z,7.49
2022-12-27T16:40:52.176Z,7.48
2022-12-27T16:43:28.889Z,7.49
2022-12-27T16:45:47.181Z,7.47
2022-12-27T16:48:15.110Z,7.48
2022-12-27T16:50:41.130Z,7.48
2022-12-27T16:53:00.827Z,7.46
2022-12-27T16:55:23.169Z,7.44
2022-12-27T16:57:43.029Z,7.44
2022-12-27T17:00:03.661Z,7.42
2022-12-27T17:02:32.806Z,7.40
2022-12-27T17:05:01.549Z,7.40
2022-12-27T17:07:07.298Z,7.39
2022-12-27T17:09:43.229Z,7.36
2022-12-27T17:12:07.853Z,7.35
2022-12-27T17:14:16.928Z,7.32
2022-12-27T17:16:24.521Z,7.30
2022-12-27T17:18:33.012Z,7.30
2022-12-27T17:20:40.064Z,7.29
2022-12-27T17:22:44.460Z,7.27
2022-12-27T17:24:51.515Z,7.26
2022-12-27T17:27:12.888Z,7.25
2022-12-27T17:29:43.081Z,7.26
2022-12-27T17:32:05.648Z,7.28
2022-12-27T17:34:21.689Z,7.29
2022-12-27T17:36:41.305Z,7.31
2022-12-27T17:38:58.655Z,7.32
2022-12-27T17:41:16.064Z,7.33
2022-12-27T17:43:51.849Z,7.33
2022-12-27T17:46:15.866Z,7.33
2022-12-27T17:48:27.325Z,7.35
2022-12-27T17:50:31.195Z,7.34
2022-12-27T17:52:52.112Z,7.33
2022-12-27T17:55:44.870Z,7.33
2022-12-27T17:57:56.383Z,7.30
2022-12-27T18:00:02.573Z,7.26
2022-12-27T18:02:33.390Z,7.23
2022-12-27T18:04:40.384Z,7.19
2022-12-27T18:06:50.537Z,7.15
2022-12-27T18:08:55.030Z,7.13
2022-12-27T18:10:59.960Z,7.10
2022-12-27T18:13:06.787Z,7.08
2022-12-27T18:15:17.395Z,7.03
2022-12-27T18:17:29.286Z,7.02
2022-12-27T18:19:34.285Z,7.03
2022-12-27T18:21:38.316Z,7.03
2022-12-27T18:23:45.949Z,7.04
2022-12-27T18:25:58.013Z,7.06
2022-12-27T18:28:05.406Z,7.07
2022-12-27T18:30:13.759Z,7.10
2022-12-27T18:32:20.130Z,7.10
2022-12-27T18:34:29.809Z,7.09
2022-12-27T18:36:38.280Z,7.08
2022-12-27T18:38:44.814Z,7.07
2022-12-27T18:41:01.104Z,7.04
2022-12-27T18:43:05.096Z,7.03
2022-12-27T18:45:17.139Z,7.01
2022-12-27T18:47:23.311Z,7.00
2022-12-27T18:49:32.026Z,6.99
2022-12-27T18:51:39.260Z,6.95
2022-12-27T18:53:45.839Z,6.95
2022-12-27T18:55:59.478Z,6.94
2022-12-27T18:58:05.917Z,6.94
2022-12-27T19:00:18.747Z,6.93
2022-12-27T19:02:35.963Z,6.91
2022-12-27T19:04:41.130Z,6.91
2022-12-27T19:06:51.780Z,6.90
2022-12-27T19:08:56.104Z,6.88
2022-12-27T19:10:59.736Z,6.87
2022-12-27T19:13:04.472Z,6.85
2022-12-27T19:15:20.917Z,6.82
2022-12-27T19:17:26.613Z,6.81
2022-12-27T19:19:32.352Z,6.79
2022-12-27T19:21:39.087Z,6.81
2022-12-27T19:23:49.175Z,6.77
2022-12-27T19:26:01.341Z,6.74
2022-12-27T19:28:28.245Z,6.75
2022-12-27T19:30:42.769Z,6.74
2022-12-27T19:32:46.688Z,6.72
2022-12-27T19:34:54.811Z,6.70
2022-12-27T19:37:00.726Z,6.70
2022-12-27T19:39:21.388Z,6.71
2022-12-27T19:41:27.218Z,6.70
2022-12-27T19:43:37.502Z,6.70
2022-12-27T19:45:41.257Z,6.70
2022-12-27T19:47:44.935Z,6.69
2022-12-27T19:49:49.610Z,6.69
2022-12-27T19:51:56.731Z,6.69
2022-12-27T19:54:02.021Z,6.68
2022-12-27T19:56:06.359Z,6.69
2022-12-27T19:58:16.882Z,6.67
2022-12-27T20:00:22.164Z,6.67
2022-12-27T20:02:26.137Z,6.66
2022-12-27T20:04:30.749Z,6.64
2022-12-27T20:06:35.603Z,6.62
2022-12-27T20:08:41.638Z,6.61
2022-12-27T20:10:46.786Z,6.59
2022-12-27T20:12:50.516Z,6.59
2022-12-27T20:14:54.441Z,6.57
2022-12-27T20:16:58.479Z,6.57
2022-12-27T20:19:03.081Z,6.54
2022-12-27T20:21:08.196Z,6.54
2022-12-27T20:23:12.021Z,6.52
2022-12-27T20:25:15.852Z,6.53
2022-12-27T20:27:24.077Z,6.52
2022-12-27T20:29:30.474Z,6.50
2022-12-27T20:31:37.533Z,6.50
2022-12-27T20:33:46.231Z,6.49
2022-12-27T20:35:57.394Z,6.47
2022-12-27T20:38:01.423Z,6.44
2022-12-27T20:40:05.381Z,6.42
2022-12-27T20:42:08.849Z,6.41
2022-12-27T20:44:15.074Z,6.40
2022-12-27T20:46:20.164Z,6.38
2022-12-27T20:48:23.995Z,6.36
2022-12-27T20:50:27.517Z,6.34
2022-12-27T20:52:31.544Z,6.34
2022-12-27T20:54:35.326Z,6.32
2022-12-27T20:56:39.115Z,6.31
2022-12-27T20:58:42.991Z,6.28
2022-12-27T21:00:48.290Z,6.26
2022-12-27T21:02:52.355Z,6.25
2022-12-27T21:04:56.550Z,6.24
2022-12-27T21:07:00.337Z,6.21
2022-12-27T21:09:05.940Z,6.21
2022-12-27T21:11:10.914Z,6.21
2022-12-27T21:13:15.995Z,6.21
2022-12-27T21:15:19.908Z,6.19
2022-12-27T21:17:24.944Z,6.19
2022-12-27T21:19:30.742Z,6.19
2022-12-27T21:21:36.887Z,6.16
2022-12-27T21:23:40.940Z,6.16
2022-12-27T21:25:44.580Z,6.14
2022-12-27T21:27:48.833Z,6.12
2022-12-27T21:29:52.423Z,6.12
2022-12-27T21:31:56.240Z,6.09
2022-12-27T21:34:01.750Z,6.07
2022-12-27T21:36:08.096Z,6.07
2022-12-27T21:38:11.822Z,6.07
2022-12-27T21:40:15.927Z,6.05
2022-12-27T21:42:19.836Z,6.04
2022-12-27T21:44:25.553Z,6.04
2022-12-27T21:46:31.783Z,6.04
2022-12-27T21:48:37.916Z,6.03
2022-12-27T21:50:43.231Z,6.04
2022-12-27T21:52:46.853Z,6.06
2022-12-27T21:54:50.694Z,6.07
2022-12-27T21:56:54.433Z,6.09
2022-12-27T21:58:59.818Z,6.13
2022-12-27T22:01:08.568Z,6.15
2022-12-27T22:03:13.189Z,6.20
2022-12-27T22:05:17.243Z,6.23
2022-12-27T22:07:22.528Z,6.28
2022-12-27T22:09:26.305Z,6.32
2022-12-27T22:11:38.832Z,6.34
2022-12-27T22:13:43.581Z,6.35
2022-12-27T22:15:56.749Z,6.35
2022-12-27T22:18:01.268Z,6.35
2022-12-27T22:20:05.524Z,6.37
2022-12-27T22:22:14.865Z,6.37
2022-12-27T22:24:43.675Z,6.38
2022-12-27T22:26:52.714Z,6.38
2022-12-27T22:29:08.527Z,6.39
2022-12-27T22:31:14.682Z,6.40
2022-12-27T22:33:19.594Z,6.41
2022-12-27T22:35:24.918Z,6.41
2022-12-27T22:37:28.935Z,6.40
2022-12-27T22:39:34.370Z,6.38
2022-12-27T22:41:38.716Z,6.36
2022-12-27T22:43:45.666Z,6.35
2022-12-27T22:48:28.021Z,6.30
2022-12-27T22:50:32.059Z,6.28
2022-12-27T22:52:36.321Z,6.27
2022-12-27T22:55:07.177Z,6.25
2022-12-27T22:57:11.322Z,6.24
2022-12-27T22:59:19.590Z,6.23
2022-12-27T23:01:27.955Z,6.22
2022-12-27T23:03:31.950Z,6.21
2022-12-27T23:05:35.944Z,6.20
2022-12-27T23:08:04.087Z,6.19
2022-12-27T23:10:05.663Z,6.20
2022-12-27T23:12:11.895Z,6.18
2022-12-27T23:14:18.618Z,6.17
2022-12-27T23:16:22.648Z,6.18
2022-12-27T23:18:26.567Z,6.18
2022-12-27T23:20:30.424Z,6.19
2022-12-27T23:22:34.243Z,6.19
2022-12-27T23:24:38.158Z,6.18
2022-12-27T23:26:43.736Z,6.18
2022-12-27T23:28:48.456Z,6.19
2022-12-27T23:30:52.273Z,6.19
2022-12-27T23:32:57.451Z,6.19
2022-12-27T23:35:01.197Z,6.18
2022-12-27T23:37:05.348Z,6.16
2022-12-27T23:39:09.830Z,6.15
2022-12-27T23:41:17.836Z,6.13
2022-12-27T23:43:55.838Z,6.12
2022-12-27T23:45:49.558Z,6.13
2022-12-27T23:47:53.653Z,6.13
2022-12-27T23:49:57.315Z,6.14
2022-12-27T23:52:01.274Z,6.12
2022-12-27T23:54:06.944Z,6.15
2022-12-27T23:56:16.537Z,6.14
2022-12-27T23:58:20.507Z,6.14
